createdAt,value
2018-09-13T00:01:11.751Z,97.37
2018-09-13T00:03:41.389Z,96.45
2018-09-13T00:06:11.084Z,96.53
2018-09-13T00:08:40.839Z,96.70
2018-09-13T00:11:10.291Z,96.91
2018-09-13T00:13:40.599Z,97.69
2018-09-13T00:16:10.196Z,97.41
2018-09-13T00:18:39.901Z,97.87
2018-09-13T00:21:09.497Z,96.89
2018-09-13T00:29:44.863Z,97.76
2018-09-13T00:32:14.709Z,97.17
2018-09-13T00:34:44.416Z,97.93
2018-09-13T00:37:14.215Z,96.94
2018-09-13T00:39:44.076Z,98.30
2018-09-13T00:42:13.648Z,98.22
2018-09-13T00:44:43.421Z,97.57
2018-09-13T00:47:13.803Z,98.23
2018-09-13T00:49:44.326Z,97.36
2018-09-13T00:52:14.278Z,97.87
2018-09-13T01:22:09.563Z,98.23
2018-09-13T01:24:39.251Z,97.73
2018-09-13T01:27:08.794Z,97.74
2018-09-13T01:29:38.438Z,97.60
2018-09-13T01:32:08.125Z,97.64
2018-09-13T01:34:37.866Z,98.18
2018-09-13T01:37:07.407Z,96.81
2018-09-13T01:39:37.018Z,97.54
2018-09-13T01:42:06.609Z,97.77
2018-09-13T01:44:36.372Z,98.51
2018-09-13T01:47:05.805Z,97.76
2018-09-13T01:49:35.350Z,97.90
2018-09-13T01:52:05.013Z,98.20
2018-09-13T01:54:34.660Z,98.09
2018-09-13T01:57:04.233Z,98.69
2018-09-13T01:59:34.928Z,98.84
2018-09-13T02:02:04.386Z,97.99
2018-09-13T02:04:34.093Z,98.52
2018-09-13T02:07:03.565Z,97.72
2018-09-13T02:09:33.181Z,98.29
2018-09-13T02:12:02.741Z,98.21
2018-09-13T02:14:32.332Z,97.79
2018-09-13T02:17:01.850Z,97.29
2018-09-13T02:19:31.573Z,97.33
2018-09-13T02:22:01.100Z,97.51
2018-09-13T02:24:30.677Z,96.90
2018-09-13T02:27:00.353Z,98.25
2018-09-13T02:29:29.910Z,98.20
2018-09-13T02:31:59.253Z,98.01
2018-09-13T02:34:28.846Z,97.33
2018-09-13T02:36:58.282Z,97.43
2018-09-13T02:39:27.892Z,97.01
2018-09-13T02:41:57.396Z,97.06
2018-09-13T02:44:26.922Z,98.81
2018-09-13T02:46:56.376Z,98.06
2018-09-13T02:49:26.041Z,98.15
2018-09-13T02:51:55.462Z,97.42
2018-09-13T02:54:25.002Z,98.46
2018-09-13T02:56:54.320Z,98.15
2018-09-13T02:59:24.023Z,97.42
2018-09-13T03:01:53.417Z,96.93
2018-09-13T03:04:23.088Z,97.90
2018-09-13T03:06:52.700Z,97.64
2018-09-13T03:09:22.165Z,97.70
2018-09-13T03:11:51.886Z,97.60
2018-09-13T03:14:21.449Z,98.99
2018-09-13T03:16:50.923Z,97.85
2018-09-13T03:19:20.325Z,98.00
2018-09-13T03:21:50.128Z,98.11
2018-09-13T03:24:45.744Z,97.76
2018-09-13T03:30:52.589Z,97.64
2018-09-13T03:36:02.443Z,98.76
2018-09-13T03:38:31.870Z,98.34
2018-09-13T03:41:01.490Z,97.59
2018-09-13T03:43:30.921Z,98.81
2018-09-13T03:46:00.527Z,97.79
2018-09-13T03:48:29.962Z,98.43
2018-09-13T03:51:00.122Z,97.88
2018-09-13T03:53:29.504Z,98.85
2018-09-13T03:55:59.088Z,98.51
2018-09-13T03:58:28.664Z,98.65
2018-09-13T04:00:58.451Z,98.49
2018-09-13T04:03:28.049Z,98.61
2018-09-13T04:05:57.687Z,97.79
2018-09-13T04:08:27.485Z,98.43
2018-09-13T04:10:57.162Z,98.76
2018-09-13T04:13:26.935Z,98.48
2018-09-13T04:15:56.685Z,98.49
2018-09-13T04:18:26.285Z,98.27
2018-09-13T04:20:55.898Z,97.86
2018-09-13T04:23:25.394Z,97.99
2018-09-13T04:25:55.082Z,98.72
2018-09-13T04:28:24.538Z,98.19
2018-09-13T04:30:54.328Z,98.17
2018-09-13T04:33:23.762Z,97.28
2018-09-13T04:35:53.641Z,97.25
2018-09-13T04:38:23.254Z,97.59
2018-09-13T04:40:52.747Z,98.33
2018-09-13T04:43:22.531Z,98.72
2018-09-13T04:45:52.215Z,98.36
2018-09-13T04:48:21.626Z,98.82
2018-09-13T04:50:51.416Z,98.83
2018-09-13T04:53:21.171Z,98.20
2018-09-13T04:55:50.993Z,98.68
2018-09-13T04:58:20.748Z,99.05
2018-09-13T05:00:50.451Z,97.87
2018-09-13T05:03:19.870Z,98.23
2018-09-13T05:05:49.640Z,97.94
2018-09-13T05:08:19.242Z,97.85
2018-09-13T05:10:48.994Z,97.67
2018-09-13T05:13:18.601Z,97.74
2018-09-13T05:15:48.352Z,98.65
2018-09-13T05:18:17.802Z,98.61
2018-09-13T05:20:47.577Z,98.79
2018-09-13T05:23:17.029Z,97.84
2018-09-13T05:25:46.793Z,98.43
2018-09-13T05:28:16.523Z,98.03
2018-09-13T05:30:46.002Z,98.61
2018-09-13T05:33:15.415Z,97.53
2018-09-13T05:35:44.955Z,99.05
2018-09-13T05:38:14.627Z,97.94
2018-09-13T05:40:44.084Z,97.86
2018-09-13T05:43:13.764Z,97.67
2018-09-13T05:45:43.569Z,97.75
2018-09-13T05:48:13.034Z,97.85
2018-09-13T05:50:42.772Z,96.48
2018-09-13T05:53:12.376Z,96.96
2018-09-13T05:55:41.948Z,95.22
2018-09-13T05:58:11.511Z,96.49
2018-09-13T06:00:41.173Z,96.95
2018-09-13T06:03:10.784Z,95.00
2018-09-13T06:05:40.366Z,96.03
2018-09-13T06:08:15.889Z,96.74
2018-09-13T06:10:46.027Z,96.42
2018-09-13T06:13:15.568Z,96.08
2018-09-13T06:15:45.168Z,92.92
2018-09-13T06:18:15.256Z,92.86
2018-09-13T06:20:45.312Z,94.47
2018-09-13T06:23:15.074Z,94.23
2018-09-13T06:25:44.611Z,94.66
2018-09-13T06:28:14.485Z,94.54
2018-09-13T06:30:44.210Z,91.69
2018-09-13T06:33:13.866Z,90.62
2018-09-13T06:35:43.412Z,91.13
2018-09-13T06:41:16.998Z,89.90
2018-09-13T06:44:02.316Z,89.84
2018-09-13T06:46:32.466Z,90.71
2018-09-13T06:49:02.131Z,91.93
2018-09-13T06:51:32.948Z,89.80
2018-09-13T06:54:03.105Z,86.97
2018-09-13T06:56:42.668Z,85.74
2018-09-13T06:59:12.583Z,87.77
2018-09-13T07:01:42.695Z,92.01
2018-09-13T08:02:12.900Z,78.91
2018-09-13T08:04:43.710Z,79.42
2018-09-13T08:07:14.148Z,79.24
2018-09-13T08:09:45.135Z,77.14
2018-09-13T08:12:15.906Z,78.42
2018-09-13T08:14:46.602Z,77.42
2018-09-13T08:17:16.705Z,76.64
2018-09-13T08:19:46.629Z,76.85
2018-09-13T08:22:16.956Z,74.81
2018-09-13T08:24:53.978Z,79.20
2018-09-13T08:27:24.157Z,75.26
2018-09-13T08:29:53.777Z,72.88
2018-09-13T08:32:23.649Z,68.89
2018-09-13T08:40:58.110Z,65.89
2018-09-13T08:43:27.710Z,61.43
2018-09-13T08:45:57.480Z,61.81
2018-09-13T08:48:27.053Z,62.13
2018-09-13T08:50:56.900Z,59.21
2018-09-13T08:53:26.365Z,58.27
2018-09-13T08:55:56.350Z,58.92
2018-09-13T08:58:25.800Z,58.39
2018-09-13T09:00:55.573Z,59.72
2018-09-13T09:03:25.099Z,59.50
2018-09-13T09:05:54.645Z,62.42
2018-09-13T09:08:24.294Z,60.69
2018-09-13T09:10:54.719Z,56.60
2018-09-13T09:13:24.750Z,55.87
2018-09-13T09:15:54.744Z,57.51
2018-09-13T09:18:24.381Z,57.53
2018-09-13T09:20:54.178Z,56.72
2018-09-13T09:23:23.714Z,57.51
2018-09-13T09:25:53.150Z,54.40
2018-09-13T09:31:25.965Z,55.10
2018-09-13T09:33:55.687Z,56.60
2018-09-13T09:36:25.506Z,55.19
2018-09-13T09:38:55.353Z,54.26
2018-09-13T09:41:25.191Z,50.06
2018-09-13T09:43:55.758Z,49.56
2018-09-13T09:46:25.528Z,53.90
2018-09-13T09:48:55.241Z,46.87
2018-09-13T09:51:25.043Z,47.53
2018-09-13T09:53:54.769Z,51.15
2018-09-13T09:56:24.518Z,49.25
2018-09-13T09:58:54.282Z,48.63
2018-09-13T10:01:29.050Z,48.84
2018-09-13T10:03:59.328Z,52.64
2018-09-13T10:06:29.104Z,48.25
2018-09-13T10:08:59.611Z,45.83
2018-09-13T10:11:29.558Z,45.81
2018-09-13T10:13:59.277Z,44.42
2018-09-13T10:16:34.332Z,48.10
2018-09-13T10:19:08.692Z,46.64
2018-09-13T10:21:44.012Z,47.45
2018-09-13T10:24:18.448Z,44.96
2018-09-13T10:26:54.537Z,45.58
2018-09-13T10:29:28.909Z,47.46
2018-09-13T10:32:03.558Z,45.83
2018-09-13T10:34:38.081Z,45.79
2018-09-13T10:37:12.720Z,48.08
2018-09-13T10:39:47.253Z,47.10
2018-09-13T10:42:22.643Z,47.51
2018-09-13T10:44:57.054Z,51.54
2018-09-13T10:47:31.700Z,50.14
2018-09-13T10:50:06.059Z,48.93
2018-09-13T10:52:38.730Z,47.98
2018-09-13T10:55:08.434Z,48.21
2018-09-13T10:57:42.984Z,43.50
2018-09-13T11:00:13.482Z,45.62
2018-09-13T11:02:43.146Z,46.06
2018-09-13T11:05:13.849Z,46.01
2018-09-13T11:07:43.598Z,47.33
2018-09-13T11:10:13.030Z,45.79
2018-09-13T11:12:48.999Z,46.53
2018-09-13T11:15:23.705Z,44.64
2018-09-13T11:17:53.514Z,42.88
2018-09-13T11:20:24.045Z,44.42
2018-09-13T11:22:55.637Z,44.11
2018-09-13T11:25:26.117Z,47.58
2018-09-13T11:27:56.491Z,42.17
2018-09-13T11:30:26.762Z,44.83
2018-09-13T11:32:56.528Z,42.85
2018-09-13T11:35:26.106Z,44.29
2018-09-13T11:37:55.879Z,50.92
2018-09-13T11:40:25.505Z,45.31
2018-09-13T11:42:55.225Z,46.69
2018-09-13T11:45:24.686Z,43.97
2018-09-13T11:47:54.499Z,41.99
2018-09-13T11:50:24.613Z,41.51
2018-09-13T11:52:54.287Z,43.69
2018-09-13T11:55:24.048Z,41.52
2018-09-13T11:57:53.845Z,44.17
2018-09-13T12:00:23.396Z,41.96
2018-09-13T12:02:53.164Z,43.03
2018-09-13T12:05:22.612Z,39.60
2018-09-13T12:07:52.290Z,44.07
2018-09-13T12:10:22.033Z,37.53
2018-09-13T12:12:51.754Z,38.49
2018-09-13T12:15:21.205Z,35.19
2018-09-13T12:17:52.100Z,38.71
2018-09-13T12:20:21.714Z,39.94
2018-09-13T12:22:51.727Z,42.59
2018-09-13T12:25:21.281Z,39.96
2018-09-13T12:27:51.238Z,39.73
2018-09-13T12:30:20.995Z,41.26
2018-09-13T12:32:50.771Z,41.55
2018-09-13T12:35:20.487Z,43.40
2018-09-13T12:37:50.276Z,41.47
2018-09-13T12:40:21.017Z,42.89
2018-09-13T12:42:50.802Z,44.40
2018-09-13T12:45:20.576Z,41.27
2018-09-13T12:47:50.278Z,41.76
2018-09-13T12:50:20.506Z,41.41
2018-09-13T12:52:50.209Z,41.83
2018-09-13T12:55:19.876Z,41.91
2018-09-13T12:57:49.645Z,41.19
2018-09-13T13:00:19.412Z,41.98
2018-09-13T13:02:49.072Z,41.74
2018-09-13T13:05:19.557Z,42.03
2018-09-13T13:07:50.072Z,42.70
2018-09-13T13:10:20.009Z,41.53
2018-09-13T13:12:49.839Z,42.61
2018-09-13T13:15:19.416Z,41.37
2018-09-13T13:17:49.316Z,41.40
2018-09-13T13:20:18.951Z,39.96
2018-09-13T13:22:48.703Z,39.26
2018-09-13T13:25:18.474Z,43.52
2018-09-13T13:27:48.131Z,42.19
2018-09-13T13:30:17.809Z,37.77
2018-09-13T13:32:47.241Z,35.90
2018-09-13T13:35:16.640Z,38.26
2018-09-13T13:37:46.436Z,40.39
2018-09-13T13:40:16.054Z,38.88
2018-09-13T13:42:46.634Z,39.14
2018-09-13T13:45:16.077Z,40.82
2018-09-13T13:47:45.792Z,41.04
2018-09-13T13:50:15.317Z,36.40
2018-09-13T13:52:44.998Z,40.14
2018-09-13T13:55:16.496Z,37.02
2018-09-13T13:57:46.983Z,40.39
2018-09-13T14:00:16.867Z,40.45
2018-09-13T14:02:48.847Z,45.46
2018-09-13T14:05:18.739Z,39.35
2018-09-13T14:07:49.861Z,48.52
2018-09-13T14:10:19.387Z,42.20
2018-09-13T14:12:49.000Z,41.32
2018-09-13T14:15:21.487Z,41.46
2018-09-13T14:17:51.079Z,42.14
2018-09-13T14:20:21.156Z,40.43
2018-09-13T14:22:51.427Z,46.24
2018-09-13T14:30:29.282Z,51.44
2018-09-13T14:32:59.141Z,50.59
2018-09-13T14:35:32.564Z,54.22
2018-09-13T14:38:02.646Z,51.99
2018-09-13T14:40:33.298Z,49.42
2018-09-13T14:43:02.999Z,50.30
2018-09-13T14:45:33.149Z,48.49
2018-09-13T14:50:53.807Z,52.49
2018-09-13T14:53:23.813Z,52.26
2018-09-13T14:55:53.969Z,52.87
2018-09-13T14:58:23.872Z,58.54
2018-09-13T15:00:54.452Z,58.57
2018-09-13T15:03:25.084Z,58.31
2018-09-13T15:05:55.949Z,61.19
2018-09-13T15:08:26.255Z,57.88
2018-09-13T15:10:58.329Z,59.60
2018-09-13T15:13:28.864Z,55.81
2018-09-13T15:15:59.524Z,54.14
2018-09-13T15:18:36.387Z,52.16
2018-09-13T15:21:07.165Z,52.67
2018-09-13T15:23:38.806Z,52.10
2018-09-13T15:26:10.204Z,52.02
2018-09-13T15:28:39.996Z,53.86
2018-09-13T15:31:10.786Z,53.05
2018-09-13T15:33:47.280Z,49.75
2018-09-13T15:39:39.201Z,46.34
2018-09-13T15:42:36.166Z,48.75
2018-09-13T15:45:08.067Z,47.56
2018-09-13T15:47:49.638Z,51.35
2018-09-13T15:50:21.779Z,53.69
2018-09-13T15:53:10.765Z,54.57
2018-09-13T15:58:34.156Z,53.99
2018-09-13T16:01:19.700Z,58.21
2018-09-13T16:03:52.238Z,56.70
2018-09-13T16:15:31.478Z,60.69
2018-09-13T16:18:05.280Z,58.09
2018-09-13T16:20:37.815Z,59.67
2018-09-13T16:23:09.276Z,60.05
2018-09-13T16:25:45.060Z,62.69
2018-09-13T16:28:16.658Z,61.45
2018-09-13T16:30:49.710Z,65.21
2018-09-13T16:33:21.469Z,66.22
2018-09-13T16:35:55.680Z,66.70
2018-09-13T16:38:31.936Z,65.50
2018-09-13T16:41:14.327Z,66.17
2018-09-13T16:43:53.432Z,66.70
2018-09-13T16:46:48.848Z,67.92
2018-09-13T16:59:53.451Z,73.97
2018-09-13T17:02:44.637Z,75.28
2018-09-13T17:05:27.838Z,75.99
2018-09-13T17:08:16.029Z,78.01
2018-09-13T17:11:15.786Z,79.45
2018-09-13T17:13:49.538Z,80.32
2018-09-13T17:16:22.329Z,80.88
2018-09-13T17:18:52.490Z,82.15
2018-09-13T17:21:36.129Z,82.36
2018-09-13T17:24:48.057Z,82.91
2018-09-13T17:27:29.447Z,84.72
2018-09-13T17:30:19.270Z,84.60
2018-09-13T17:33:16.133Z,85.03
2018-09-13T17:35:56.123Z,86.72
2018-09-13T17:38:27.430Z,86.95
2018-09-13T17:41:16.992Z,86.88
2018-09-13T17:57:14.595Z,88.04
2018-09-13T17:59:58.851Z,89.32
2018-09-13T18:02:47.085Z,89.49
2018-09-13T18:05:24.499Z,90.98
2018-09-13T18:10:52.926Z,90.46
2018-09-13T18:13:25.247Z,90.11
2018-09-13T18:15:57.248Z,90.65
2018-09-13T18:18:29.575Z,90.19
2018-09-13T18:21:00.220Z,91.13
2018-09-13T18:23:49.835Z,91.58
2018-09-13T18:26:21.131Z,91.89
2018-09-13T18:34:59.037Z,90.79
2018-09-13T18:54:33.715Z,91.32
2018-09-13T18:57:04.654Z,91.17
2018-09-13T18:59:34.814Z,92.67
2018-09-13T19:02:08.644Z,92.66
2018-09-13T19:04:41.551Z,92.45
2018-09-13T19:07:14.380Z,93.59
2018-09-13T19:10:00.796Z,93.35
2018-09-13T19:12:44.391Z,93.05
2018-09-13T19:15:40.260Z,92.80
2018-09-13T19:18:22.043Z,93.50
2018-09-13T19:21:04.842Z,93.00
2018-09-13T19:24:37.976Z,93.21
2018-09-13T19:27:08.155Z,93.24
2018-09-13T19:29:40.503Z,93.80
2018-09-13T19:32:26.717Z,93.08
2018-09-13T19:35:27.562Z,93.34
2018-09-13T19:37:58.833Z,93.08
2018-09-13T19:40:38.911Z,93.22
2018-09-13T19:43:18.852Z,93.71
2018-09-13T19:46:11.219Z,93.64
2018-09-13T19:49:14.972Z,93.41
2018-09-13T19:51:59.386Z,94.37
2018-09-13T19:54:45.313Z,94.67
2018-09-13T19:57:36.114Z,94.42
2018-09-13T20:00:07.006Z,94.77
2018-09-13T20:02:44.265Z,94.79
2018-09-13T20:05:14.674Z,95.13
2018-09-13T20:07:44.185Z,95.07
2018-09-13T20:10:15.725Z,95.41
2018-09-13T20:12:51.084Z,94.79
2018-09-13T20:15:22.566Z,94.18
2018-09-13T20:17:55.423Z,95.18
2018-09-13T20:20:26.662Z,95.14
2018-09-13T20:23:00.561Z,94.02
2018-09-13T20:25:31.202Z,93.62
2018-09-13T20:28:01.602Z,93.88
2018-09-13T20:30:36.160Z,93.80
2018-09-13T20:33:15.263Z,94.15
2018-09-13T20:35:49.823Z,93.72
2018-09-13T20:38:27.163Z,94.85
2018-09-13T20:41:04.645Z,95.24
2018-09-13T20:43:36.272Z,95.07
2018-09-13T20:46:10.122Z,94.34
2018-09-13T20:48:40.558Z,94.48
2018-09-13T20:51:11.190Z,94.34
2018-09-13T20:53:41.342Z,94.05
2018-09-13T20:56:11.102Z,94.68
2018-09-13T20:59:00.783Z,95.10
2018-09-13T21:02:06.909Z,95.13
2018-09-13T21:04:37.302Z,95.00
2018-09-13T21:07:06.837Z,95.09
2018-09-13T21:09:38.290Z,95.03
2018-09-13T21:12:09.171Z,95.49
2018-09-13T21:14:39.291Z,95.23
2018-09-13T21:17:10.422Z,95.51
2018-09-13T21:19:40.719Z,95.92
2018-09-13T21:22:11.392Z,95.31
2018-09-13T21:24:40.999Z,94.88
2018-09-13T21:27:10.560Z,95.29
2018-09-13T21:29:40.543Z,94.66
2018-09-13T21:32:10.518Z,94.58
2018-09-13T21:34:40.678Z,95.12
2018-09-13T21:37:10.239Z,96.25
2018-09-13T21:39:40.420Z,95.10
2018-09-13T21:42:10.419Z,95.79
2018-09-13T21:44:40.199Z,95.76
2018-09-13T21:47:09.638Z,96.56
2018-09-13T21:49:39.818Z,95.91
2018-09-13T21:52:09.479Z,96.47
2018-09-13T21:54:39.857Z,95.01
2018-09-13T21:57:09.297Z,95.34
2018-09-13T21:59:39.385Z,94.84
2018-09-13T22:02:08.823Z,96.16
2018-09-13T22:04:38.606Z,95.85
2018-09-13T22:07:08.398Z,96.52
2018-09-13T22:09:38.043Z,96.00
2018-09-13T22:12:07.716Z,95.91
2018-09-13T22:14:37.316Z,96.37
2018-09-13T22:17:06.877Z,96.96
2018-09-13T22:19:37.796Z,96.01
2018-09-13T22:22:07.551Z,96.23
2018-09-13T22:24:39.276Z,96.30
2018-09-13T22:27:08.855Z,96.47
2018-09-13T22:29:39.715Z,96.66
2018-09-13T22:32:09.195Z,96.15
2018-09-13T22:34:40.275Z,96.36
2018-09-13T22:37:09.795Z,96.75
2018-09-13T22:39:40.355Z,96.52
2018-09-13T22:42:10.001Z,96.88
2018-09-13T22:44:41.535Z,96.32
2018-09-13T22:47:12.894Z,96.75
2018-09-13T22:49:43.435Z,97.41
2018-09-13T22:52:17.566Z,96.33
2018-09-13T22:54:52.735Z,96.67
2018-09-13T22:57:24.134Z,96.65
2018-09-13T22:59:56.994Z,96.42
2018-09-13T23:02:28.354Z,96.74
2018-09-13T23:05:01.342Z,96.64
2018-09-13T23:07:31.873Z,96.84
2018-09-13T23:10:01.794Z,96.79
2018-09-13T23:12:31.817Z,97.27
2018-09-13T23:15:03.495Z,96.73
2018-09-13T23:17:33.370Z,96.70
2018-09-13T23:20:03.414Z,96.98
2018-09-13T23:22:32.913Z,96.02
2018-09-13T23:25:03.793Z,95.84
2018-09-13T23:27:33.314Z,95.42
2018-09-13T23:30:02.833Z,96.50
2018-09-13T23:32:32.293Z,96.44
2018-09-13T23:35:02.414Z,96.73
2018-09-13T23:37:32.434Z,96.19
2018-09-13T23:40:02.820Z,96.50
2018-09-13T23:42:32.493Z,96.89
2018-09-13T23:45:03.196Z,97.04
2018-09-13T23:47:32.693Z,96.95
2018-09-13T23:50:03.741Z,97.51
2018-09-13T23:52:33.734Z,96.57
2018-09-13T23:55:03.973Z,96.29
2018-09-13T23:57:33.623Z,95.76
